createdAt,value
2018-08-13T00:00:53.339Z,22.59
2018-08-13T00:03:19.933Z,22.61
2018-08-13T00:05:46.308Z,22.63
2018-08-13T00:08:12.678Z,22.60
2018-08-13T00:10:39.003Z,22.60
2018-08-13T00:13:05.317Z,22.58
2018-08-13T00:15:31.667Z,22.60
2018-08-13T00:17:58.034Z,22.59
2018-08-13T00:20:24.374Z,22.62
2018-08-13T00:22:50.699Z,22.59
2018-08-13T00:25:17.021Z,22.62
2018-08-13T00:27:43.424Z,22.61
2018-08-13T00:30:09.801Z,22.61
2018-08-13T00:32:36.149Z,22.62
2018-08-13T00:35:02.511Z,22.58
2018-08-13T00:37:29.094Z,22.58
2018-08-13T00:39:55.498Z,22.60
2018-08-13T00:42:21.920Z,22.58
2018-08-13T00:44:48.340Z,22.59
2018-08-13T00:47:14.680Z,22.57
2018-08-13T00:49:41.017Z,22.57
2018-08-13T00:52:07.358Z,22.59
2018-08-13T00:54:33.688Z,22.57
2018-08-13T00:57:00.160Z,22.57
2018-08-13T00:59:26.492Z,22.57
2018-08-13T01:01:52.871Z,22.56
2018-08-13T01:04:19.239Z,22.56
2018-08-13T01:06:45.643Z,22.51
2018-08-13T01:09:12.079Z,22.54
2018-08-13T01:11:38.455Z,22.52
2018-08-13T01:14:04.868Z,22.49
2018-08-13T01:16:31.378Z,22.46
2018-08-13T01:18:57.755Z,22.52
2018-08-13T01:21:24.140Z,22.49
2018-08-13T01:23:50.472Z,22.45
2018-08-13T01:26:16.869Z,22.43
2018-08-13T01:28:43.263Z,22.44
2018-08-13T01:31:09.694Z,22.45
2018-08-13T01:33:36.027Z,22.45
2018-08-13T01:36:02.694Z,22.43
2018-08-13T01:38:29.024Z,22.44
2018-08-13T01:40:55.423Z,22.43
2018-08-13T01:43:21.751Z,22.46
2018-08-13T01:45:48.078Z,22.43
2018-08-13T01:48:14.514Z,22.45
2018-08-13T01:50:40.899Z,22.44
2018-08-13T01:53:07.364Z,22.45
2018-08-13T01:55:33.723Z,22.44
2018-08-13T01:58:00.051Z,22.44
2018-08-13T02:00:26.409Z,22.44
2018-08-13T02:02:52.885Z,22.46
2018-08-13T02:05:19.255Z,22.44
2018-08-13T02:07:45.593Z,22.46
2018-08-13T02:10:11.906Z,22.44
2018-08-13T02:12:38.342Z,22.46
2018-08-13T02:15:04.878Z,22.43
2018-08-13T02:17:31.314Z,22.44
2018-08-13T02:19:57.703Z,22.44
2018-08-13T02:22:24.045Z,22.43
2018-08-13T02:24:50.432Z,22.39
2018-08-13T02:27:16.767Z,22.43
2018-08-13T02:29:43.142Z,22.42
2018-08-13T02:32:09.543Z,22.43
2018-08-13T02:34:35.931Z,22.44
2018-08-13T02:37:02.273Z,22.44
2018-08-13T02:39:28.660Z,22.44
2018-08-13T02:41:55.055Z,22.41
2018-08-13T02:44:21.583Z,22.42
2018-08-13T02:46:47.960Z,22.42
2018-08-13T02:49:14.388Z,22.41
2018-08-13T02:51:40.901Z,22.40
2018-08-13T02:54:07.347Z,22.39
2018-08-13T02:56:33.698Z,22.39
2018-08-13T02:59:00.069Z,22.39
2018-08-13T03:01:26.459Z,22.36
2018-08-13T03:03:52.822Z,22.39
2018-08-13T03:06:19.203Z,22.36
2018-08-13T03:08:45.571Z,22.38
2018-08-13T03:11:11.942Z,22.36
2018-08-13T03:13:38.335Z,22.38
2018-08-13T03:16:04.750Z,22.36
2018-08-13T03:18:31.135Z,22.38
2018-08-13T03:20:57.511Z,22.37
2018-08-13T03:23:23.844Z,22.34
2018-08-13T03:25:50.307Z,22.32
2018-08-13T03:28:16.704Z,22.32
2018-08-13T03:30:43.144Z,22.36
2018-08-13T03:33:09.484Z,22.40
2018-08-13T03:35:35.871Z,22.41
2018-08-13T03:38:02.310Z,22.46
2018-08-13T03:40:28.705Z,22.48
2018-08-13T03:42:55.108Z,22.51
2018-08-13T03:45:21.475Z,22.55
2018-08-13T03:47:47.798Z,22.60
2018-08-13T03:50:14.262Z,22.58
2018-08-13T03:52:40.628Z,22.64
2018-08-13T03:55:06.995Z,22.68
2018-08-13T03:57:33.352Z,22.75
2018-08-13T03:59:59.733Z,22.79
2018-08-13T04:02:26.310Z,23.23
2018-08-13T04:04:52.832Z,23.29
2018-08-13T04:07:19.257Z,23.30
2018-08-13T04:09:45.587Z,23.38
2018-08-13T04:12:12.025Z,23.49
2018-08-13T04:14:38.483Z,23.59
2018-08-13T04:17:04.816Z,23.60
2018-08-13T04:19:31.199Z,23.59
2018-08-13T04:21:57.521Z,23.60
2018-08-13T04:24:23.881Z,23.65
2018-08-13T04:26:50.380Z,23.76
2018-08-13T04:29:16.776Z,23.79
2018-08-13T04:31:43.178Z,23.85
2018-08-13T04:34:09.539Z,23.87
2018-08-13T04:36:35.897Z,23.91
2018-08-13T04:39:02.265Z,23.95
2018-08-13T04:41:28.599Z,24.05
2018-08-13T04:43:54.986Z,23.97
2018-08-13T04:46:21.329Z,24.03
2018-08-13T04:48:47.705Z,23.98
2018-08-13T04:51:14.086Z,23.90
2018-08-13T04:53:40.435Z,23.91
2018-08-13T04:56:07.053Z,23.88
2018-08-13T04:58:33.431Z,23.87
2018-08-13T05:00:59.785Z,23.86
2018-08-13T05:03:26.192Z,23.92
2018-08-13T05:05:52.521Z,23.96
2018-08-13T05:08:18.846Z,23.96
2018-08-13T05:10:45.255Z,24.03
2018-08-13T05:13:11.723Z,24.08
2018-08-13T05:15:38.079Z,24.09
2018-08-13T05:18:04.488Z,24.14
2018-08-13T05:20:30.838Z,24.15
2018-08-13T05:22:57.216Z,24.18
2018-08-13T05:25:23.581Z,24.22
2018-08-13T05:27:49.991Z,24.24
2018-08-13T05:30:16.495Z,24.25
2018-08-13T05:32:42.932Z,24.28
2018-08-13T05:35:09.301Z,24.27
2018-08-13T05:37:35.811Z,24.34
2018-08-13T05:40:02.188Z,24.41
2018-08-13T05:42:28.714Z,24.44
2018-08-13T05:44:55.133Z,24.43
2018-08-13T05:47:21.570Z,24.46
2018-08-13T05:49:47.928Z,24.48
2018-08-13T05:52:14.299Z,24.50
2018-08-13T05:54:40.792Z,24.57
2018-08-13T05:57:07.406Z,24.66
2018-08-13T05:59:33.855Z,24.65
2018-08-13T06:02:00.207Z,24.65
2018-08-13T06:04:26.627Z,24.65
2018-08-13T06:06:53.038Z,24.79
2018-08-13T06:09:19.376Z,24.81
2018-08-13T06:11:45.855Z,24.86
2018-08-13T06:14:12.146Z,24.90
2018-08-13T06:16:38.483Z,24.89
2018-08-13T06:19:04.835Z,24.87
2018-08-13T06:21:31.285Z,24.81
2018-08-13T06:23:57.692Z,24.88
2018-08-13T06:26:24.101Z,24.94
2018-08-13T06:28:50.497Z,24.91
2018-08-13T06:31:16.887Z,24.99
2018-08-13T06:33:43.332Z,24.98
2018-08-13T06:36:09.959Z,24.99
2018-08-13T06:38:36.360Z,25.06
2018-08-13T06:41:02.910Z,24.99
2018-08-13T06:43:30.023Z,25.11
2018-08-13T06:45:56.468Z,25.06
2018-08-13T06:48:22.862Z,25.06
2018-08-13T06:50:49.238Z,25.10
2018-08-13T06:53:15.600Z,25.11
2018-08-13T06:55:41.995Z,25.21
2018-08-13T06:58:08.366Z,25.22
2018-08-13T07:00:34.880Z,25.27
2018-08-13T07:03:01.283Z,25.33
2018-08-13T07:05:27.614Z,25.34
2018-08-13T07:07:53.990Z,25.33
2018-08-13T07:10:20.407Z,25.33
2018-08-13T07:12:46.830Z,25.38
2018-08-13T07:15:13.255Z,25.39
2018-08-13T07:17:39.650Z,25.38
2018-08-13T07:20:06.036Z,25.39
2018-08-13T07:22:32.499Z,25.44
2018-08-13T07:24:58.817Z,25.46
2018-08-13T07:27:26.305Z,25.31
2018-08-13T07:29:52.736Z,25.20
2018-08-13T07:32:19.202Z,25.25
2018-08-13T07:34:45.611Z,25.20
2018-08-13T07:37:12.085Z,25.18
2018-08-13T07:39:38.449Z,25.20
2018-08-13T07:42:04.911Z,25.32
2018-08-13T07:44:31.375Z,25.34
2018-08-13T07:46:57.941Z,25.25
2018-08-13T07:49:24.539Z,25.28
2018-08-13T07:51:51.074Z,25.31
2018-08-13T07:54:17.366Z,25.31
2018-08-13T07:56:44.005Z,25.29
2018-08-13T07:59:10.518Z,25.25
2018-08-13T08:01:37.140Z,25.34
2018-08-13T08:04:03.492Z,25.31
2018-08-13T08:06:29.909Z,25.30
2018-08-13T08:08:56.308Z,25.43
2018-08-13T08:11:23.587Z,25.41
2018-08-13T08:13:49.953Z,25.40
2018-08-13T08:16:16.425Z,25.41
2018-08-13T08:18:43.010Z,25.44
2018-08-13T08:21:09.392Z,25.49
2018-08-13T08:23:35.873Z,25.54
2018-08-13T08:26:02.220Z,25.50
2018-08-13T08:28:28.618Z,25.57
2018-08-13T08:30:55.087Z,25.64
2018-08-13T08:33:21.461Z,25.54
2018-08-13T08:35:47.858Z,25.53
2018-08-13T08:38:14.325Z,25.55
2018-08-13T08:40:40.799Z,25.62
2018-08-13T08:43:07.087Z,25.49
2018-08-13T08:45:33.421Z,25.38
2018-08-13T08:47:59.946Z,25.34
2018-08-13T08:50:26.318Z,25.35
2018-08-13T08:52:52.697Z,25.37
2018-08-13T08:55:19.100Z,25.30
2018-08-13T08:57:45.505Z,25.50
2018-08-13T09:00:11.866Z,25.48
2018-08-13T09:02:38.274Z,25.29
2018-08-13T09:05:04.689Z,25.30
2018-08-13T09:07:31.081Z,25.37
2018-08-13T09:09:57.440Z,25.22
2018-08-13T09:12:24.115Z,25.35
2018-08-13T09:14:50.446Z,25.22
2018-08-13T09:17:16.836Z,25.13
2018-08-13T09:19:43.198Z,25.24
2018-08-13T09:22:09.703Z,25.17
2018-08-13T09:24:36.077Z,25.13
2018-08-13T09:27:02.522Z,25.16
2018-08-13T09:29:28.929Z,25.11
2018-08-13T09:31:55.376Z,25.20
2018-08-13T09:34:21.769Z,25.31
2018-08-13T09:36:48.320Z,25.27
2018-08-13T09:39:14.581Z,25.29
2018-08-13T09:41:41.014Z,25.30
2018-08-13T09:44:07.480Z,25.31
2018-08-13T09:46:33.906Z,25.34
2018-08-13T09:49:00.411Z,25.25
2018-08-13T09:51:26.946Z,25.37
2018-08-13T09:53:53.491Z,25.22
2018-08-13T09:56:20.019Z,25.31
2018-08-13T09:58:46.457Z,25.35
2018-08-13T10:01:12.896Z,25.28
2018-08-13T10:03:39.325Z,25.34
2018-08-13T10:06:05.734Z,25.26
2018-08-13T10:08:32.091Z,25.38
2018-08-13T10:10:58.565Z,25.28
2018-08-13T10:13:24.817Z,25.38
2018-08-13T10:15:51.151Z,25.43
2018-08-13T10:18:17.497Z,25.40
2018-08-13T10:20:43.916Z,25.40
2018-08-13T10:23:10.289Z,25.35
2018-08-13T10:25:36.723Z,25.38
2018-08-13T10:28:03.056Z,25.31
2018-08-13T10:30:29.488Z,25.30
2018-08-13T10:32:55.890Z,25.35
2018-08-13T10:35:22.300Z,25.41
2018-08-13T10:37:48.737Z,25.29
2018-08-13T10:40:15.086Z,25.28
2018-08-13T10:42:41.539Z,25.27
2018-08-13T10:45:07.908Z,25.38
2018-08-13T10:47:35.114Z,25.44
2018-08-13T10:50:01.596Z,25.44
2018-08-13T10:52:28.071Z,25.50
2018-08-13T10:54:54.607Z,25.51
2018-08-13T10:57:21.064Z,25.43
2018-08-13T10:59:47.600Z,25.48
2018-08-13T11:02:13.982Z,25.48
2018-08-13T11:04:40.383Z,25.54
2018-08-13T11:07:06.807Z,25.45
2018-08-13T11:09:33.250Z,25.48
2018-08-13T11:11:59.611Z,25.46
2018-08-13T11:14:25.994Z,25.45
2018-08-13T11:16:52.429Z,25.41
2018-08-13T11:19:18.834Z,25.37
2018-08-13T11:21:45.274Z,25.41
2018-08-13T11:24:11.653Z,25.35
2018-08-13T11:26:38.284Z,25.47
2018-08-13T11:29:04.692Z,25.43
2018-08-13T11:31:31.047Z,25.31
2018-08-13T11:33:57.451Z,25.42
2018-08-13T11:36:23.831Z,25.37
2018-08-13T11:38:50.211Z,25.40
2018-08-13T11:41:16.585Z,25.39
2018-08-13T11:43:42.937Z,25.40
2018-08-13T11:46:09.408Z,25.40
2018-08-13T11:48:35.763Z,25.48
2018-08-13T11:51:02.196Z,25.37
2018-08-13T11:53:28.539Z,25.39
2018-08-13T11:55:55.043Z,25.40
2018-08-13T11:58:21.455Z,25.55
2018-08-13T12:00:47.848Z,25.49
2018-08-13T12:03:14.266Z,25.52
2018-08-13T12:05:40.668Z,25.50
2018-08-13T12:08:07.049Z,25.48
2018-08-13T12:10:34.643Z,25.53
2018-08-13T12:13:01.629Z,25.48
2018-08-13T12:15:28.069Z,25.56
2018-08-13T12:17:54.474Z,25.46
2018-08-13T12:20:20.888Z,25.47
2018-08-13T12:22:47.288Z,25.53
2018-08-13T12:25:13.954Z,25.58
2018-08-13T12:27:40.350Z,25.55
2018-08-13T12:30:06.841Z,25.47
2018-08-13T12:32:33.413Z,25.55
2018-08-13T12:35:00.015Z,25.51
2018-08-13T12:37:26.390Z,25.50
2018-08-13T12:39:52.849Z,25.53
2018-08-13T12:42:19.332Z,25.55
2018-08-13T12:44:45.758Z,25.55
2018-08-13T12:47:12.157Z,25.49
2018-08-13T12:49:38.615Z,25.52
2018-08-13T12:52:05.016Z,25.54
2018-08-13T12:54:31.538Z,25.50
2018-08-13T12:56:58.019Z,25.49
2018-08-13T12:59:24.533Z,25.54
2018-08-13T13:01:50.887Z,25.58
2018-08-13T13:04:17.319Z,25.55
2018-08-13T13:06:43.855Z,25.53
2018-08-13T13:09:10.319Z,25.54
2018-08-13T13:11:36.838Z,25.58
2018-08-13T13:14:03.217Z,25.55
2018-08-13T13:16:29.660Z,25.61
2018-08-13T13:18:56.114Z,25.64
2018-08-13T13:21:22.524Z,25.64
2018-08-13T13:23:48.958Z,25.60
2018-08-13T13:26:15.313Z,25.58
2018-08-13T13:28:41.695Z,25.63
2018-08-13T13:31:08.071Z,25.59
2018-08-13T13:33:34.483Z,25.67
2018-08-13T13:36:00.940Z,25.61
2018-08-13T13:38:27.288Z,25.63
2018-08-13T13:40:53.700Z,25.59
2018-08-13T13:43:20.125Z,25.60
2018-08-13T13:45:46.550Z,25.69
2018-08-13T13:48:12.891Z,25.68
2018-08-13T13:50:39.233Z,25.68
2018-08-13T13:53:05.624Z,25.54
2018-08-13T13:55:32.023Z,25.64
2018-08-13T13:57:58.457Z,25.62
2018-08-13T14:00:24.819Z,25.69
2018-08-13T14:02:51.271Z,25.70
2018-08-13T14:05:17.607Z,25.73
2018-08-13T14:07:43.968Z,25.60
2018-08-13T14:10:10.391Z,25.66
2018-08-13T14:12:36.766Z,25.67
2018-08-13T14:15:03.111Z,25.70
2018-08-13T14:17:29.560Z,25.70
2018-08-13T14:19:56.041Z,25.69
2018-08-13T14:22:22.497Z,25.65
2018-08-13T14:24:48.910Z,25.73
2018-08-13T14:27:15.258Z,25.70
2018-08-13T14:29:41.762Z,25.67
2018-08-13T14:32:08.196Z,25.62
2018-08-13T14:34:34.606Z,25.65
2018-08-13T14:37:00.958Z,25.64
2018-08-13T14:39:27.358Z,25.57
2018-08-13T14:41:53.762Z,25.58
2018-08-13T14:44:20.288Z,25.53
2018-08-13T14:46:46.712Z,25.57
2018-08-13T14:49:13.123Z,25.56
2018-08-13T14:51:40.494Z,25.59
2018-08-13T14:54:06.965Z,25.59
2018-08-13T14:56:33.415Z,25.58
2018-08-13T14:58:59.778Z,25.59
2018-08-13T15:01:26.227Z,25.59
2018-08-13T15:03:52.863Z,25.58
2018-08-13T15:06:19.490Z,25.58
2018-08-13T15:08:46.016Z,25.57
2018-08-13T15:11:12.500Z,25.54
2018-08-13T15:13:38.934Z,25.51
2018-08-13T15:16:05.297Z,25.57
2018-08-13T15:18:31.673Z,25.54
2018-08-13T15:20:58.295Z,25.54
2018-08-13T15:23:24.661Z,25.52
2018-08-13T15:25:51.056Z,25.52
2018-08-13T15:28:17.489Z,25.46
2018-08-13T15:30:44.371Z,25.51
2018-08-13T15:33:10.948Z,25.47
2018-08-13T15:35:37.322Z,25.53
2018-08-13T15:38:03.711Z,25.48
2018-08-13T15:40:30.084Z,25.44
2018-08-13T15:42:56.433Z,25.44
2018-08-13T15:45:22.807Z,25.41
2018-08-13T15:47:49.288Z,25.45
2018-08-13T15:50:15.668Z,25.36
2018-08-13T15:52:42.065Z,25.35
2018-08-13T15:55:08.461Z,25.45
2018-08-13T15:57:34.895Z,25.40
2018-08-13T16:00:01.294Z,25.38
2018-08-13T16:02:27.633Z,25.33
2018-08-13T16:04:53.965Z,25.36
2018-08-13T16:07:20.414Z,25.36
2018-08-13T16:09:46.951Z,25.29
2018-08-13T16:12:13.406Z,25.30
2018-08-13T16:14:39.742Z,25.19
2018-08-13T16:17:06.090Z,25.24
2018-08-13T16:19:32.481Z,25.16
2018-08-13T16:21:58.846Z,25.23
2018-08-13T16:24:25.219Z,25.20
2018-08-13T16:26:51.624Z,25.16
2018-08-13T16:29:18.010Z,25.18
2018-08-13T16:31:44.342Z,25.19
2018-08-13T16:34:10.685Z,25.19
2018-08-13T16:36:37.062Z,25.15
2018-08-13T16:39:03.451Z,25.08
2018-08-13T16:41:29.848Z,25.05
2018-08-13T16:43:56.240Z,24.97
2018-08-13T16:46:22.734Z,25.06
2018-08-13T16:48:49.079Z,25.03
2018-08-13T16:51:15.575Z,24.90
2018-08-13T16:53:41.954Z,24.94
2018-08-13T16:56:08.350Z,24.94
2018-08-13T16:58:34.704Z,24.93
2018-08-13T17:01:01.039Z,24.95
2018-08-13T17:03:27.431Z,24.95
2018-08-13T17:05:53.801Z,24.95
2018-08-13T17:08:20.219Z,24.92
2018-08-13T17:10:46.603Z,24.86
2018-08-13T17:13:13.021Z,24.93
2018-08-13T17:15:39.496Z,24.96
2018-08-13T17:18:05.823Z,24.89
2018-08-13T17:20:32.147Z,24.81
2018-08-13T17:22:58.481Z,24.75
2018-08-13T17:25:24.857Z,24.83
2018-08-13T17:27:51.266Z,24.77
2018-08-13T17:30:17.606Z,24.74
2018-08-13T17:32:43.963Z,24.78
2018-08-13T17:35:10.307Z,24.71
2018-08-13T17:37:36.655Z,24.72
2018-08-13T17:40:03.066Z,24.72
2018-08-13T17:42:29.419Z,24.74
2018-08-13T17:44:55.761Z,24.66
2018-08-13T17:47:22.093Z,24.64
2018-08-13T17:49:48.433Z,24.62
2018-08-13T17:52:14.812Z,24.64
2018-08-13T17:54:41.142Z,24.59
2018-08-13T17:57:08.347Z,24.65
2018-08-13T17:59:34.774Z,24.56
2018-08-13T18:02:01.100Z,24.53
2018-08-13T18:04:27.436Z,24.47
2018-08-13T18:06:53.767Z,24.47
2018-08-13T18:09:20.127Z,24.38
2018-08-13T18:11:46.465Z,24.42
2018-08-13T18:14:12.946Z,24.45
2018-08-13T18:16:39.321Z,24.32
2018-08-13T18:19:05.658Z,24.38
2018-08-13T18:21:32.012Z,24.30
2018-08-13T18:23:58.382Z,24.24
2018-08-13T18:26:24.821Z,24.25
2018-08-13T18:28:51.252Z,24.23
2018-08-13T18:31:17.590Z,24.18
2018-08-13T18:33:43.982Z,24.18
2018-08-13T18:36:10.384Z,24.24
2018-08-13T18:38:36.748Z,24.21
2018-08-13T18:41:03.078Z,24.21
2018-08-13T18:43:29.420Z,24.11
2018-08-13T18:45:55.784Z,24.11
2018-08-13T18:48:22.137Z,24.10
2018-08-13T18:50:48.455Z,24.06
2018-08-13T18:53:14.916Z,24.08
2018-08-13T18:55:41.261Z,24.05
2018-08-13T18:58:07.596Z,24.02
2018-08-13T19:00:33.928Z,23.99
2018-08-13T19:03:00.324Z,24.00
2018-08-13T19:05:26.731Z,23.98
2018-08-13T19:07:53.127Z,23.97
2018-08-13T19:10:19.450Z,23.96
2018-08-13T19:12:45.786Z,23.97
2018-08-13T19:15:12.188Z,24.01
2018-08-13T19:17:38.620Z,23.93
2018-08-13T19:20:04.963Z,23.98
2018-08-13T19:22:31.363Z,23.93
2018-08-13T19:24:57.728Z,23.93
2018-08-13T19:27:24.100Z,23.92
2018-08-13T19:29:50.493Z,23.94
2018-08-13T19:32:16.927Z,23.91
2018-08-13T19:34:43.284Z,23.91
2018-08-13T19:37:09.628Z,23.90
2018-08-13T19:39:35.988Z,23.88
2018-08-13T19:42:02.393Z,23.88
2018-08-13T19:44:28.825Z,23.87
2018-08-13T19:46:55.181Z,23.88
2018-08-13T19:49:21.552Z,23.85
2018-08-13T19:51:47.903Z,23.76
2018-08-13T19:54:14.235Z,23.79
2018-08-13T19:56:40.673Z,23.79
2018-08-13T19:59:07.032Z,23.78
2018-08-13T20:01:33.348Z,23.77
2018-08-13T20:03:59.721Z,23.80
2018-08-13T20:06:26.180Z,23.74
2018-08-13T20:08:52.574Z,23.71
2018-08-13T20:11:18.982Z,23.71
2018-08-13T20:13:45.366Z,23.77
2018-08-13T20:16:11.749Z,23.66
2018-08-13T20:18:38.132Z,23.77
2018-08-13T20:21:04.557Z,23.74
2018-08-13T20:23:30.881Z,23.74
2018-08-13T20:25:57.215Z,23.76
2018-08-13T20:28:23.574Z,23.74
2018-08-13T20:30:50.236Z,23.72
2018-08-13T20:33:16.591Z,23.71
2018-08-13T20:35:42.953Z,23.68
2018-08-13T20:38:09.353Z,23.70
2018-08-13T20:40:35.680Z,23.70
2018-08-13T20:43:02.094Z,23.65
2018-08-13T20:45:28.452Z,23.65
2018-08-13T20:47:55.197Z,23.63
2018-08-13T20:50:21.564Z,23.62
2018-08-13T20:52:47.911Z,23.63
2018-08-13T20:55:14.309Z,23.66
2018-08-13T20:57:40.665Z,23.59
2018-08-13T21:00:06.991Z,23.63
2018-08-13T21:02:33.364Z,23.61
2018-08-13T21:04:59.841Z,23.59
2018-08-13T21:07:26.182Z,23.59
2018-08-13T21:09:52.534Z,23.58
2018-08-13T21:12:18.869Z,23.57
2018-08-13T21:14:45.201Z,23.55
2018-08-13T21:17:11.537Z,23.57
2018-08-13T21:19:37.926Z,23.53
2018-08-13T21:22:04.305Z,23.56
2018-08-13T21:24:30.687Z,23.46
2018-08-13T21:26:57.028Z,23.50
2018-08-13T21:29:23.365Z,23.50
2018-08-13T21:31:49.697Z,23.48
2018-08-13T21:34:16.090Z,23.47
2018-08-13T21:36:42.458Z,23.47
2018-08-13T21:39:08.840Z,23.44
2018-08-13T21:41:35.183Z,23.49
2018-08-13T21:44:01.527Z,23.46
2018-08-13T21:46:27.858Z,23.45
2018-08-13T21:48:54.183Z,23.41
2018-08-13T21:51:20.536Z,23.43
2018-08-13T21:53:46.859Z,23.44
2018-08-13T21:56:13.512Z,23.39
2018-08-13T21:58:39.954Z,23.42
2018-08-13T22:01:06.300Z,23.34
2018-08-13T22:03:32.635Z,23.36
2018-08-13T22:05:59.137Z,23.39
2018-08-13T22:08:25.635Z,23.36
2018-08-13T22:10:52.034Z,23.33
2018-08-13T22:13:18.447Z,23.33
2018-08-13T22:15:44.759Z,23.33
2018-08-13T22:18:11.092Z,23.34
2018-08-13T22:20:37.489Z,23.36
2018-08-13T22:23:03.843Z,23.32
2018-08-13T22:25:30.178Z,23.34
2018-08-13T22:27:56.554Z,23.34
2018-08-13T22:30:22.890Z,23.28
2018-08-13T22:32:49.283Z,23.28
2018-08-13T22:35:15.676Z,23.27
2018-08-13T22:37:42.169Z,23.30
2018-08-13T22:40:08.528Z,23.28
2018-08-13T22:42:34.940Z,23.26
2018-08-13T22:45:01.392Z,23.27
2018-08-13T22:47:27.848Z,23.22
2018-08-13T22:49:54.199Z,23.24
2018-08-13T22:52:20.758Z,23.22
2018-08-13T22:54:47.116Z,23.22
2018-08-13T22:57:13.512Z,23.23
2018-08-13T22:59:39.899Z,23.26
2018-08-13T23:02:06.231Z,23.20
2018-08-13T23:04:32.635Z,23.21
2018-08-13T23:06:59.010Z,23.20
2018-08-13T23:09:25.443Z,23.21
2018-08-13T23:11:51.768Z,23.19
2018-08-13T23:14:18.234Z,23.19
2018-08-13T23:16:44.667Z,23.15
2018-08-13T23:19:11.012Z,23.22
2018-08-13T23:21:37.344Z,23.17
2018-08-13T23:24:03.771Z,23.15
2018-08-13T23:26:30.175Z,23.14
2018-08-13T23:28:56.503Z,23.18
2018-08-13T23:31:22.851Z,23.13
2018-08-13T23:33:49.290Z,23.17
2018-08-13T23:36:15.648Z,23.11
2018-08-13T23:38:42.053Z,23.12
2018-08-13T23:41:08.385Z,23.14
2018-08-13T23:43:34.785Z,23.15
2018-08-13T23:46:01.223Z,23.10
2018-08-13T23:48:27.573Z,23.08
2018-08-13T23:50:53.912Z,23.12
2018-08-13T23:53:20.308Z,23.09
2018-08-13T23:55:46.737Z,23.10
2018-08-13T23:58:13.153Z,23.08
